Pueblitos, New Mexico
Current Conditions -  °F | °C
As of 10:15 AM on Saturday 25 Oct 2014 (Local Time) from KE80 Reporting Station
Clear Clear  
Wind Chill: 61°   Ceiling: Unl
Heat Index: 61°   Visibility: 10mi
Dew Point: 31°   Wind: 5mph
Humidity: 33%   Direction: 50°NE
Pressure: 30.33"   Gusts: NA
Location:  34.5756°N, 106.588°W
Report Text: KE80 251615Z AUTO 05004KT 10SM CLR 16/00 A3033 RMK AO2 T01601005
Loading
Personal Weather Stations






























Interactive Weather Map
Tropical Storm Tracking
New forecast layout! Learn more

10-Day Weather Forecast

Advertisements
Track Severe Weather on mobile